Time;durP1;ratioP1;P1;durP2;ratioP2;P2;SDS_P1;SDS_P2;PMS_P1;PMS_P2;Temp;Humidity;BMP_temperature;BMP_pressure;BME280_temperature;BME280_humidity;BME280_pressure;Samples;Min_cycle;Max_cycle;Signal;HPM_P1;HPM_P2
2022/01/02 00:05:20;;;;;;;39.80;18.10;;;;;;;8.81;97.68;99296.73;420364;1312;97947;-40
2022/01/02 00:15:27;;;;;;;37.90;17.20;;;;;;;8.89;97.78;99301.15;420298;1312;111370;-40
2022/01/02 00:25:38;;;;;;;36.80;18.80;;;;;;;8.95;97.70;99296.77;420241;1312;108882;-42
2022/01/02 00:35:45;;;;;;;40.40;19.60;;;;;;;8.88;97.52;99284.64;420113;1312;98073;-41
2022/01/02 00:45:55;;;;;;;39.30;20.70;;;;;;;8.88;97.51;99278.27;420523;1313;108939;-40
2022/01/02 00:56:05;;;;;;;40.10;20.60;;;;;;;8.89;97.45;99267.52;420222;1313;97615;-40
2022/01/02 01:06:14;;;;;;;36.00;20.10;;;;;;;8.87;97.46;99258.55;420254;1312;111355;-40
2022/01/02 01:16:22;;;;;;;40.60;22.70;;;;;;;8.81;97.39;99261.72;420219;1312;109006;-40
2022/01/02 01:26:30;;;;;;;38.20;21.70;;;;;;;8.79;97.53;99266.39;420357;1312;97550;-41
2022/01/02 01:36:37;;;;;;;52.60;27.10;;;;;;;8.84;97.65;99259.48;420371;1312;109167;-41
2022/01/02 01:56:53;;;;;;;45.40;23.50;;;;;;;8.76;97.24;99211.25;420314;1312;111177;-39
2022/01/02 02:07:00;;;;;;;40.30;21.90;;;;;;;8.66;97.23;99196.65;420489;1312;108941;-40
2022/01/02 02:17:07;;;;;;;45.30;26.30;;;;;;;8.65;97.48;99186.71;419723;1304;97564;-39
2022/01/02 02:27:15;;;;;;;45.80;23.30;;;;;;;8.66;97.49;99193.92;418166;1316;108912;-40
2022/01/02 02:57:58;;;;;;;42.60;21.00;;;;;;;8.67;97.61;99178.84;418576;1314;108853;-39
2022/01/02 03:08:05;;;;;;;42.00;19.30;;;;;;;8.68;97.60;99171.38;418718;1314;97965;-42
2022/01/02 03:18:12;;;;;;;33.90;19.20;;;;;;;8.66;97.52;99145.63;418226;1314;109156;-41
2022/01/02 03:28:20;;;;;;;40.40;21.80;;;;;;;8.60;97.46;99128.92;418302;1314;97965;-43
2022/01/02 03:38:27;;;;;;;36.60;20.20;;;;;;;8.57;97.48;99115.44;418726;1313;111349;-40
2022/01/02 03:48:32;;;;;;;34.30;19.80;;;;;;;8.53;97.39;99097.67;418289;1314;108184;-40
2022/01/02 03:58:43;;;;;;;31.20;19.00;;;;;;;8.55;97.53;99105.21;419073;1314;97964;-40
2022/01/02 04:29:02;;;;;;;29.60;15.80;;;;;;;8.62;97.42;99081.60;418214;1314;110262;-40
2022/01/02 04:39:09;;;;;;;27.50;16.70;;;;;;;8.57;97.34;99048.04;418178;1314;107386;-41
2022/01/02 04:49:16;;;;;;;41.90;23.70;;;;;;;8.50;97.30;99034.95;418119;1315;98213;-41
2022/01/02 04:59:24;;;;;;;48.10;25.50;;;;;;;8.47;97.41;99012.61;418838;1315;109072;-39
2022/01/02 05:09:32;;;;;;;56.70;28.20;;;;;;;8.41;97.17;98996.04;418768;1315;97996;-40
2022/01/02 05:19:39;;;;;;;57.50;29.90;;;;;;;8.25;97.01;98976.91;418206;1317;111182;-40
2022/01/02 05:29:49;;;;;;;57.10;26.50;;;;;;;8.08;96.91;98954.18;418679;1315;108200;-40
2022/01/02 05:39:56;;;;;;;60.80;29.50;;;;;;;7.88;96.88;98918.69;418253;1316;97991;-41
2022/01/02 05:50:04;;;;;;;54.40;28.10;;;;;;;7.75;97.03;98892.41;418976;1314;108867;-40
2022/01/02 06:00:09;;;;;;;63.90;30.80;;;;;;;7.69;97.08;98867.56;418976;1315;98619;-40
2022/01/02 06:10:16;;;;;;;59.40;31.30;;;;;;;7.63;97.16;98857.53;418544;1317;111368;-40
2022/01/02 06:20:23;;;;;;;57.80;28.70;;;;;;;7.55;97.09;98865.91;418020;1317;109046;-40
2022/01/02 06:30:32;;;;;;;60.90;30.90;;;;;;;7.47;97.07;98865.96;418392;1316;97634;-39
2022/01/02 06:40:39;;;;;;;62.40;33.40;;;;;;;7.36;97.07;98823.20;414165;1316;5728079;-39
2022/01/02 06:50:47;;;;;;;53.00;29.40;;;;;;;7.29;97.21;98805.23;418438;1316;97887;-39
2022/01/02 07:21:07;;;;;;;36.40;22.60;;;;;;;7.26;97.28;98756.51;418973;1314;97955;-39
2022/01/02 07:31:14;;;;;;;36.90;21.90;;;;;;;7.26;97.28;98744.21;418900;1314;109778;-40
2022/01/02 07:41:21;;;;;;;33.10;20.20;;;;;;;7.38;97.48;98730.15;418902;1315;97967;-41
2022/01/02 07:51:29;;;;;;;31.90;18.20;;;;;;;7.53;97.42;98709.21;418951;1314;110789;-39
2022/01/02 08:01:36;;;;;;;30.90;17.20;;;;;;;7.63;97.35;98713.32;418129;1314;109085;-39
2022/01/02 08:11:43;;;;;;;32.60;18.70;;;;;;;7.84;97.37;98701.31;418408;1314;97583;-40
2022/01/02 08:21:54;;;;;;;30.80;16.00;;;;;;;8.16;97.41;98683.63;418151;1314;108011;-40
2022/01/02 08:32:03;;;;;;;25.00;15.00;;;;;;;8.54;97.44;98676.55;419105;1314;97576;-40
2022/01/02 08:42:11;;;;;;;29.70;15.90;;;;;;;8.54;96.78;98689.77;418291;1315;112084;-41
2022/01/02 08:52:19;;;;;;;21.50;13.50;;;;;;;8.67;96.87;98691.36;418330;1314;109129;-40
2022/01/02 09:02:26;;;;;;;22.10;13.80;;;;;;;9.09;96.77;98677.66;418278;1314;98089;-40
2022/01/02 09:12:33;;;;;;;27.60;14.40;;;;;;;9.42;96.71;98671.61;418249;1314;109031;-40
2022/01/02 09:32:47;;;;;;;21.40;12.00;;;;;;;9.28;95.24;98665.09;418143;1315;111811;-40
2022/01/02 09:42:55;;;;;;;17.70;9.50;;;;;;;9.53;95.17;98634.01;418228;1316;107486;-40
2022/01/02 09:53:01;;;;;;;18.70;11.00;;;;;;;9.70;94.79;98628.98;418406;1317;100185;-40
2022/01/02 10:03:10;;;;;;;16.80;9.20;;;;;;;9.60;94.46;98617.06;418918;1314;108886;-41
2022/01/02 10:13:16;;;;;;;17.20;8.60;;;;;;;9.65;93.90;98594.32;419082;1314;97649;-40
2022/01/02 10:23:24;;;;;;;17.10;8.30;;;;;;;9.73;93.77;98591.11;419011;1314;111079;-40
2022/01/02 10:33:50;;;;;;;16.30;8.80;;;;;;;9.76;93.84;98575.77;419269;1317;108892;-40
2022/01/02 10:44:16;;;;;;;14.30;9.00;;;;;;;9.92;93.66;98542.51;419185;1314;97938;-41
2022/01/02 10:54:33;;;;;;;13.80;8.00;;;;;;;10.14;93.18;98536.48;419133;1314;108402;-42
2022/01/02 11:04:41;;;;;;;19.20;10.50;;;;;;;10.14;92.84;98523.52;419293;1314;97921;-40
2022/01/02 11:14:49;;;;;;;15.60;9.10;;;;;;;9.96;92.45;98499.70;419225;1314;111036;-41
2022/01/02 12:06:14;;;;;;;14.30;8.20;;;;;;;9.93;91.53;98459.19;419041;1314;110306;-40
2022/01/02 12:16:34;;;;;;;14.40;8.10;;;;;;;10.06;91.36;98444.69;418133;1316;108857;-41
2022/01/02 12:26:41;;;;;;;25.60;10.80;;;;;;;10.03;91.20;98431.79;419019;1314;97960;-39
2022/01/02 12:36:50;;;;;;;17.20;8.50;;;;;;;9.98;90.74;98433.47;419192;1314;108770;-40
2022/01/02 12:46:58;;;;;;;17.90;9.00;;;;;;;10.00;90.51;98404.66;418968;1314;97891;-40
2022/01/02 12:57:06;;;;;;;16.50;9.20;;;;;;;9.96;90.46;98391.15;418378;1316;111167;-41
2022/01/02 13:07:14;;;;;;;13.50;8.20;;;;;;;9.81;90.29;98398.54;419043;1313;109172;-41
2022/01/02 13:17:25;;;;;;;15.20;8.10;;;;;;;9.70;90.07;98385.81;419065;1314;98230;-39
2022/01/02 13:27:32;;;;;;;12.10;6.80;;;;;;;9.64;90.13;98382.73;418179;1316;107902;-40
2022/01/02 13:37:39;;;;;;;16.80;8.30;;;;;;;9.57;90.13;98375.07;418317;1316;97995;-40
2022/01/02 13:47:47;;;;;;;21.90;12.90;;;;;;;9.43;89.96;98381.71;418943;1313;110045;-40
2022/01/02 13:57:53;;;;;;;18.20;10.30;;;;;;;9.36;89.92;98388.81;419105;1314;107854;-40
2022/01/02 14:08:14;;;;;;;17.20;8.80;;;;;;;9.35;89.87;98383.06;419073;1314;96847;-41
2022/01/02 14:18:28;;;;;;;22.00;11.50;;;;;;;9.36;89.81;98370.35;418845;1313;109125;-42
2022/01/02 14:28:35;;;;;;;18.10;10.30;;;;;;;9.25;89.68;98368.41;419071;1313;98090;-43
2022/01/02 14:38:51;;;;;;;20.20;10.50;;;;;;;9.14;89.51;98328.88;416593;1314;3129502;-40
2022/01/02 14:48:58;;;;;;;22.90;11.60;;;;;;;9.07;89.55;98319.06;419063;1314;109081;-41
2022/01/02 14:59:06;;;;;;;20.30;10.80;;;;;;;9.00;89.63;98322.70;418339;1317;98153;-40
2022/01/02 15:19:21;;;;;;;23.90;12.90;;;;;;;8.75;89.52;98301.77;419089;1313;97900;-41
2022/01/02 15:29:26;;;;;;;23.70;12.10;;;;;;;8.70;89.45;98296.38;418111;1314;97871;-40
2022/01/02 15:39:34;;;;;;;24.60;13.30;;;;;;;8.69;89.46;98277.01;418923;1313;110007;-41
2022/01/02 15:49:41;;;;;;;26.10;13.60;;;;;;;8.63;89.48;98250.30;418844;1313;109166;-41
2022/01/02 15:59:49;;;;;;;23.60;13.10;;;;;;;8.54;89.42;98248.86;419217;1313;98512;-41
2022/01/02 16:09:55;;;;;;;23.20;11.40;;;;;;;8.52;89.26;98219.98;418904;1313;109010;-41
2022/01/02 16:20:01;;;;;;;16.80;9.80;;;;;;;8.55;89.26;98202.95;418111;1314;97950;-42
2022/01/02 16:30:10;;;;;;;22.80;11.50;;;;;;;8.58;89.32;98202.95;418303;1314;111205;-41
2022/01/02 16:40:18;;;;;;;30.00;15.90;;;;;;;8.52;89.43;98207.45;418992;1314;107950;-40
2022/01/02 16:50:25;;;;;;;34.20;17.70;;;;;;;8.53;89.07;98199.71;418154;1317;97958;-40
2022/01/02 17:00:33;;;;;;;31.30;14.90;;;;;;;8.58;88.94;98187.20;418125;1316;109085;-43
2022/01/02 17:10:41;;;;;;;34.10;14.70;;;;;;;8.64;89.07;98175.30;418669;1315;97971;-41
2022/01/02 17:20:49;;;;;;;46.20;19.00;;;;;;;8.60;89.04;98164.27;418294;1316;109366;-41
2022/01/02 17:30:56;;;;;;;25.20;12.00;;;;;;;8.60;88.82;98147.08;418853;1314;106865;-41
2022/01/02 17:41:02;;;;;;;20.00;11.90;;;;;;;8.64;88.58;98076.83;418897;1313;100184;-43
2022/01/02 17:51:09;;;;;;;28.00;15.80;;;;;;;8.66;87.87;98022.70;418910;1314;109491;-41
2022/01/02 18:21:32;;;;;;;19.90;9.40;;;;;;;8.49;87.72;98019.48;418907;1313;109083;-42
2022/01/02 18:31:39;;;;;;;27.70;12.20;;;;;;;8.54;87.66;98013.98;418871;1313;97968;-39
2022/01/02 18:41:46;;;;;;;24.20;11.60;;;;;;;8.54;87.73;97993.63;418995;1314;111124;-41
2022/01/02 18:51:51;;;;;;;23.40;12.50;;;;;;;8.43;87.50;97972.73;418767;1314;109356;-43
2022/01/02 19:01:59;;;;;;;21.30;10.70;;;;;;;8.43;87.20;97954.66;418762;1314;97648;-40
2022/01/02 19:12:06;;;;;;;15.20;9.40;;;;;;;8.48;87.12;97954.76;418174;1314;108892;-42
2022/01/02 19:22:20;;;;;;;18.20;10.40;;;;;;;8.49;86.86;97942.87;418926;1314;98057;-41
2022/01/02 19:32:26;;;;;;;16.80;8.70;;;;;;;8.44;86.86;97931.43;419047;1313;111258;-40
2022/01/02 19:42:33;;;;;;;12.80;7.20;;;;;;;8.46;86.72;97923.79;418871;1314;108742;-43
2022/01/02 19:52:39;;;;;;;10.50;6.80;;;;;;;8.44;86.59;97923.59;418208;1317;97979;-40
2022/01/02 20:02:47;;;;;;;15.60;8.10;;;;;;;8.33;86.44;97919.62;418884;1314;108902;-40
2022/01/02 20:12:54;;;;;;;14.20;7.60;;;;;;;8.17;86.35;97906.46;418298;1315;97988;-41
2022/01/02 20:23:02;;;;;;;12.30;6.70;;;;;;;8.09;86.23;97926.06;418951;1314;111025;-42
2022/01/02 20:33:09;;;;;;;19.00;11.10;;;;;;;8.06;86.27;97929.77;418824;1313;107929;-41
2022/01/02 20:43:17;;;;;;;16.60;10.30;;;;;;;7.96;86.27;97931.83;418928;1314;97983;-41
2022/01/02 20:53:24;;;;;;;14.40;8.50;;;;;;;7.87;86.36;97920.46;418985;1314;108790;-41
2022/01/02 21:13:39;;;;;;;13.10;7.60;;;;;;;8.26;85.92;97932.20;418820;1313;111266;-40
2022/01/02 21:23:46;;;;;;;13.50;7.40;;;;;;;8.46;85.91;97930.58;418322;1317;108199;-40
2022/01/02 21:44:00;;;;;;;13.50;8.00;;;;;;;8.60;85.53;97950.69;418240;1317;108942;-39
2022/01/02 21:54:08;;;;;;;11.20;7.10;;;;;;;8.71;85.14;97929.06;418847;1313;97596;-41
2022/01/02 22:04:17;;;;;;;14.00;8.40;;;;;;;8.63;85.05;97929.46;418832;1314;111183;-41
2022/01/02 22:14:24;;;;;;;16.10;8.20;;;;;;;8.53;84.23;97933.02;419081;1315;109007;-40
2022/01/02 22:24:36;;;;;;;9.60;6.40;;;;;;;8.53;84.27;97936.77;418858;1315;96773;-40
2022/01/02 22:34:43;;;;;;;12.60;6.50;;;;;;;8.56;84.14;97934.12;415110;1314;5535483;-42
2022/01/02 22:44:51;;;;;;;11.10;6.50;;;;;;;8.55;83.94;97942.59;418218;1316;97965;-39
2022/01/02 22:54:59;;;;;;;16.80;8.20;;;;;;;8.62;83.73;97941.49;418050;1315;108895;-40
2022/01/02 23:05:03;;;;;;;14.60;7.90;;;;;;;8.67;83.58;97943.48;418848;1313;98002;-40
2022/01/02 23:15:10;;;;;;;12.60;7.20;;;;;;;8.65;83.17;97933.48;418822;1314;111167;-40
2022/01/02 23:25:17;;;;;;;13.50;6.80;;;;;;;8.65;82.88;97932.02;418902;1314;109232;-42
2022/01/02 23:35:25;;;;;;;9.60;6.60;;;;;;;8.69;82.46;97930.23;418867;1314;97991;-41
2022/01/02 23:45:33;;;;;;;11.00;6.90;;;;;;;8.61;82.56;97912.71;418181;1315;111104;-40
2022/01/02 23:55:41;;;;;;;10.90;5.80;;;;;;;8.50;82.26;97905.23;418415;1314;109363;-40
